Victoria Regional Airport
KVCT : rendu visible

Aérodrome :











RETROUVEZ-NOUS SUR...

 
LOGIN :

S'inscrire | Disclaimer

   EN    FR    IT 

 









Légende :    VFR   VFR Marginal   IFR   IFR Intensif   IFR Très Intensif
Visi : 
Plafond : 
>= 8 km
>= 3000ft
5 à 8 km
1000 à 3000 ft
1500m à 5 km
500 à 1000 ft
800 à 1500m
200 à 500 ft
< 800m
< 200 ft
Symboles :   Orages  Brouillard  Fortes neiges  Fortes précipitations  Vent > 20 kt






- Altitude de l'aérodrome : 115 ft
- Code IATA : VCT


KVCT - Victoria Regional

DERNIER METAR :
  • 200451Z AUTO 01007KT 10SM CLR 07/01 A3050 RMK AO2 SLP327 T00720006 $

METARs EXPIRÉS :
  • 200351Z AUTO 36008KT 10SM CLR 06/01 A3049 RMK AO2 SLP323 T00610011 $
  • 200251Z 36006KT 10SM CLR 08/01 A3047 RMK AO2 SLP318 T00780006 51017 $

TAF KVCT
Valide du 20 à 06h jusqu'au 21 à 06h UTC


200529Z 2006/2106 03008KT P6SM FEW250
FM210200 08004KT P6SM FEW250



MET'MAP, la Météo Aéronautique d'un coup d'oeil ! - Copyright ORBIFLY Décembre 2007 - Disclaimer

ORBIFLY MET'MAP TEAM :

Programmation & Développement : Alexandra Zaïnal
Sur une idée originale de : Baudouin d'Aumeries
Assistance à la programmation : Marc-Olivier Méhu
Soutien technique & logistique : Manuel Goepfert

Contact : metmap@orbifly.com




SOURCES & CREDITS :

   NOAA       Earth
Advisory